| time (UTC) | temp F | wind direction | speed MPH | gust MPH | rain 1hr in | rain 24hr in | rain mn in | humidity % | barometer mb |
| 20260905133615 | 61 | 21 | 8.0 | 12.0 | 0.00 | 0.00 | 0.00 | 79 | 1010.7 |
| 20260905132615 | 61 | 9 | 9.0 | 16.0 | 0.00 | 0.00 | 0.00 | 79 | 1010.7 |
| 20260905131617 | 61 | 21 | 11.0 | 16.0 | 0.00 | 0.00 | 0.00 | 79 | 1010.5 |
| 20260905130714 | 61 | 1 | 10.0 | 14.0 | 0.00 | 0.00 | 0.00 | 77 | 1010.4 |
| 20260905125715 | 61 | 22 | 9.0 | 16.0 | 0.00 | 0.00 | 0.00 | 79 | 1010.4 |
| 20260905124716 | 61 | 14 | 9.0 | 12.0 | 0.00 | 0.00 | 0.00 | 80 | 1010.4 |
| 20260905123716 | 60 | 13 | 8.0 | 10.0 | 0.00 | 0.00 | 0.00 | 82 | 1010.3 |
| 20260905122716 | 60 | 358 | 6.0 | 13.0 | 0.00 | 0.00 | 0.00 | 82 | 1010.1 |
| 20260905120914 | 60 | 19 | 7.0 | 9.0 | 0.00 | 0.00 | 0.00 | 82 | 1010.2 |
| 20260905115915 | 60 | 22 | 10.0 | 13.0 | 0.00 | 0.00 | 0.00 | 81 | 1010.1 |
| 20260905114917 | 60 | 19 | 7.0 | 13.0 | 0.00 | 0.00 | 0.00 | 80 | 1009.9 |
| 20260905113916 | 61 | 11 | 10.0 | 15.0 | 0.00 | 0.00 | 0.00 | 79 | 1009.7 |
| 20260905112914 | 62 | 4 | 9.0 | 14.0 | 0.00 | 0.00 | 0.00 | 80 | 1009.6 |
| 20260905111915 | 62 | 347 | 8.0 | 11.0 | 0.00 | 0.00 | 0.00 | 81 | 1009.5 |
| 20260905110916 | 61 | 33 | 7.0 | 14.0 | 0.00 | 0.01 | 0.00 | 82 | 1009.5 |
| 20260905110014 | 61 | 39 | 10.0 | 14.0 | 0.00 | 0.01 | 0.00 | 82 | 1009.6 |
| 20260905105016 | 61 | 31 | 9.0 | 14.0 | 0.00 | 0.01 | 0.00 | 82 | 1009.4 |
| 20260905104916 | 61 | 17 | 10.0 | 16.0 | 0.00 | 0.01 | 0.00 | 82 | 1009.4 |
| 20260905104014 | 61 | 46 | 10.0 | 17.0 | 0.00 | 0.01 | 0.00 | 83 | 1009.2 |
| 20260905102116 | 61 | 3 | 9.0 | 13.0 | 0.00 | 0.01 | 0.00 | 87 | 1009.1 |
| 20260905101115 | 61 | 20 | 7.0 | 10.0 | 0.00 | 0.01 | 0.00 | 89 | 1009.0 |
| 20260905101015 | 61 | 25 | 5.0 | 10.0 | 0.00 | 0.01 | 0.00 | 89 | 1009.0 |
| 20260905100914 | 61 | 23 | 9.0 | 12.0 | 0.00 | 0.01 | 0.00 | 89 | 1008.9 |
| 20260905095916 | 61 | 24 | 5.0 | 7.0 | 0.00 | 0.01 | 0.00 | 92 | 1008.9 |
| 20260905094917 | 61 | 344 | 7.0 | 10.0 | 0.00 | 0.01 | 0.00 | 93 | 1008.7 |
| 20260905094814 | 61 | 331 | 6.0 | 10.0 | 0.00 | 0.01 | 0.00 | 93 | 1008.7 |
| 20260905093816 | 61 | 337 | 5.0 | 7.0 | 0.00 | 0.01 | 0.00 | 92 | 1008.6 |
| 20260905092816 | 61 | 332 | 3.0 | 4.0 | 0.00 | 0.01 | 0.00 | 93 | 1008.6 |
| 20260905091816 | 61 | 319 | 3.0 | 5.0 | 0.00 | 0.01 | 0.00 | 93 | 1008.5 |
| 20260905090817 | 61 | 347 | 3.0 | 5.0 | 0.00 | 0.01 | 0.00 | 93 | 1008.4 |
| 20260905085916 | 61 | 341 | 6.0 | 10.0 | 0.00 | 0.01 | 0.00 | 93 | 1008.4 |
| 20260905084916 | 61 | 317 | 7.0 | 10.0 | 0.00 | 0.01 | 0.00 | 93 | 1008.4 |
| 20260905084015 | 61 | 323 | 6.0 | 8.0 | 0.00 | 0.01 | 0.00 | 92 | 1008.3 |
| 20260905083916 | 61 | 318 | 7.0 | 11.0 | 0.00 | 0.01 | 0.00 | 93 | 1008.4 |
| 20260905082917 | 61 | 317 | 4.0 | 7.0 | 0.00 | 0.01 | 0.00 | 93 | 1008.4 |
| 20260905081914 | 61 | 327 | 5.0 | 8.0 | 0.00 | 0.01 | 0.00 | 92 | 1008.4 |
| 20260905080915 | 61 | 311 | 4.0 | 6.0 | 0.00 | 0.01 | 0.00 | 93 | 1008.4 |
| 20260905080014 | 61 | 327 | 4.0 | 8.0 | 0.00 | 0.01 | 0.00 | 92 | 1008.4 |
| 20260905075917 | 61 | 343 | 4.0 | 6.0 | 0.00 | 0.01 | 0.00 | 91 | 1008.4 |
| 20260905074915 | 62 | 334 | 9.0 | 14.0 | 0.00 | 0.01 | 0.00 | 91 | 1008.2 |
| 20260905073916 | 62 | 338 | 8.0 | 12.0 | 0.00 | 0.01 | 0.00 | 91 | 1008.2 |
| 20260905072916 | 62 | 315 | 8.0 | 10.0 | 0.00 | 0.01 | 0.00 | 90 | 1008.4 |
| 20260905071915 | 62 | 326 | 6.0 | 9.0 | 0.00 | 0.01 | 0.00 | 90 | 1008.2 |
| 20260905065915 | 62 | 315 | 4.0 | 7.0 | 0.00 | 0.01 | 0.00 | 89 | 1008.4 |
| 20260905065816 | 62 | 315 | 7.0 | 10.0 | 0.00 | 0.01 | 0.00 | 90 | 1008.2 |
| 20260905064816 | 62 | 316 | 8.0 | 12.0 | 0.00 | 0.01 | 0.00 | 91 | 1008.3 |
| 20260905063816 | 62 | 315 | 6.0 | 10.0 | 0.00 | 0.01 | 0.00 | 91 | 1008.2 |
| 20260905062815 | 62 | 315 | 4.0 | 5.0 | 0.00 | 0.01 | 0.00 | 91 | 1008.1 |
| 20260905061914 | 62 | 316 | 7.0 | 9.0 | 0.00 | 0.01 | 0.00 | 91 | 1008.0 |
| 20260905061013 | 62 | 312 | 6.0 | 7.0 | 0.00 | 0.01 | 0.00 | 92 | 1008.1 |
| 20260905060015 | 62 | 324 | 7.0 | 10.0 | 0.00 | 0.01 | 0.00 | 92 | 1007.9 |
| 20260905055916 | 62 | 315 | 9.0 | 12.0 | 0.00 | 0.01 | 0.00 | 92 | 1008.0 |
| 20260905055014 | 62 | 321 | 7.0 | 10.0 | 0.00 | 0.01 | 0.00 | 92 | 1008.0 |
| 20260905054916 | 62 | 325 | 8.0 | 13.0 | 0.00 | 0.01 | 0.00 | 91 | 1007.9 |
| 20260905053114 | 62 | 317 | 8.0 | 12.0 | 0.00 | 0.01 | 0.00 | 91 | 1007.8 |
| 20260905053017 | 62 | 331 | 5.0 | 7.0 | 0.00 | 0.01 | 0.00 | 91 | 1007.8 |
| 20260905052115 | 62 | 308 | 5.0 | 11.0 | 0.00 | 0.01 | 0.00 | 92 | 1007.8 |
| 20260905051116 | 62 | 315 | 6.0 | 8.0 | 0.00 | 0.01 | 0.00 | 91 | 1007.8 |
| 20260905051017 | 62 | 327 | 7.0 | 11.0 | 0.00 | 0.01 | 0.00 | 92 | 1007.9 |
| 20260905050016 | 62 | 303 | 8.0 | 11.0 | 0.00 | 0.01 | 0.00 | 90 | 1007.9 |
| 20260905045016 | 63 | 315 | 7.0 | 11.0 | 0.00 | 0.01 | 0.00 | 91 | 1008.0 |
| 20260905044016 | 63 | 316 | 7.0 | 11.0 | 0.00 | 0.01 | 0.00 | 90 | 1008.0 |
| 20260905043014 | 63 | 310 | 8.0 | 10.0 | 0.00 | 0.01 | 0.00 | 90 | 1008.0 |
| 20260905042918 | 63 | 304 | 8.0 | 11.0 | 0.00 | 0.01 | 0.00 | 89 | 1008.0 |
| 20260905041013 | 63 | 302 | 8.0 | 12.0 | 0.00 | 0.01 | 0.00 | 90 | 1008.1 |
| 20260905040915 | 63 | 311 | 8.0 | 11.0 | 0.00 | 0.01 | 0.00 | 90 | 1008.0 |
| 20260905040014 | 63 | 310 | 10.0 | 13.0 | 0.00 | 0.01 | 0.00 | 89 | 1008.0 |
| 20260905035015 | 63 | 315 | 6.0 | 9.0 | 0.00 | 0.01 | 0.01 | 89 | 1008.1 |
| 20260905034917 | 63 | 314 | 7.0 | 8.0 | 0.00 | 0.01 | 0.01 | 90 | 1008.0 |
| 20260905033929 | 63 | 313 | 8.0 | 11.0 | 0.00 | 0.01 | 0.01 | 89 | 1008.1 |
| 20260905033017 | 64 | 290 | 6.0 | 9.0 | 0.00 | 0.01 | 0.01 | 90 | 1008.0 |
| 20260905032016 | 64 | 294 | 8.0 | 12.0 | 0.00 | 0.01 | 0.01 | 89 | 1008.0 |
| 20260905031016 | 64 | 285 | 6.0 | 10.0 | 0.00 | 0.01 | 0.01 | 89 | 1008.1 |
| 20260905030015 | 65 | 275 | 6.0 | 7.0 | 0.00 | 0.01 | 0.01 | 88 | 1008.1 |
| 20260905025016 | 65 | 294 | 8.0 | 11.0 | 0.00 | 0.01 | 0.01 | 88 | 1008.0 |
| 20260905023116 | 65 | 315 | 7.0 | 10.0 | 0.00 | 0.01 | 0.01 | 88 | 1008.0 |
| 20260905022215 | 65 | 296 | 7.0 | 11.0 | 0.00 | 0.02 | 0.01 | 88 | 1008.1 |
| 20260905021232 | 65 | 290 | 6.0 | 9.0 | 0.00 | 0.02 | 0.01 | 87 | 1008.0 |
| 20260905020216 | 65 | 274 | 9.0 | 10.0 | 0.00 | 0.02 | 0.01 | 88 | 1008.0 |
| 20260905015313 | 66 | 270 | 8.0 | 11.0 | 0.00 | 0.02 | 0.01 | 88 | 1008.1 |
| 20260905015216 | 66 | 275 | 9.0 | 12.0 | 0.00 | 0.02 | 0.01 | 88 | 1008.1 |
| 20260905014315 | 66 | 273 | 10.0 | 11.0 | 0.00 | 0.02 | 0.01 | 88 | 1008.1 |
| 20260905013315 | 66 | 274 | 8.0 | 10.0 | 0.00 | 0.02 | 0.01 | 87 | 1008.2 |
| 20260905012317 | 66 | 291 | 7.0 | 10.0 | 0.00 | 0.03 | 0.01 | 86 | 1008.1 |
| 20260905011316 | 67 | 270 | 7.0 | 9.0 | 0.00 | 0.03 | 0.01 | 86 | 1008.2 |
| 20260905010314 | 67 | 270 | 7.0 | 9.0 | 0.00 | 0.03 | 0.01 | 85 | 1008.4 |
| 20260905005315 | 67 | 270 | 7.0 | 9.0 | 0.00 | 0.03 | 0.01 | 85 | 1008.4 |
| 20260905003317 | 67 | 269 | 8.0 | 10.0 | 0.00 | 0.04 | 0.01 | 85 | 1008.4 |
| 20260905002316 | 67 | 272 | 8.0 | 13.0 | 0.00 | 0.04 | 0.01 | 86 | 1008.3 |
| 20260905001315 | 66 | 263 | 7.0 | 10.0 | 0.00 | 0.04 | 0.01 | 87 | 1008.4 |
| 20260905001215 | 66 | 265 | 9.0 | 13.0 | 0.00 | 0.04 | 0.01 | 87 | 1008.4 |
| 20260904235315 | 67 | 265 | 7.0 | 13.0 | 0.00 | 0.05 | 0.01 | 86 | 1008.4 |
| 20260904235216 | 67 | 268 | 7.0 | 11.0 | 0.00 | 0.05 | 0.01 | 86 | 1008.3 |
| 20260904234216 | 67 | 259 | 8.0 | 11.0 | 0.00 | 0.06 | 0.01 | 85 | 1008.2 |
| 20260904233314 | 67 | 268 | 5.0 | 8.0 | 0.00 | 0.06 | 0.01 | 83 | 1008.3 |
| 20260904232316 | 67 | 261 | 5.0 | 7.0 | 0.00 | 0.07 | 0.01 | 84 | 1008.2 |
| 20260904231414 | 67 | 247 | 4.0 | 5.0 | 0.00 | 0.07 | 0.01 | 84 | 1008.2 |
| 20260904230416 | 67 | 225 | 1.0 | 5.0 | 0.00 | 0.08 | 0.01 | 86 | 1008.2 |
| 20260904225415 | 67 | 225 | 2.0 | 4.0 | 0.00 | 0.08 | 0.01 | 87 | 1008.2 |
| 20260904224414 | 68 | 229 | 3.0 | 5.0 | 0.00 | 0.09 | 0.01 | 87 | 1008.1 |
| 20260904224315 | 68 | 239 | 5.0 | 8.0 | 0.00 | 0.09 | 0.01 | 87 | 1008.2 |
| 20260904223315 | 68 | 254 | 2.0 | 3.0 | 0.00 | 0.09 | 0.01 | 88 | 1008.0 |
| 20260904222314 | 68 | 259 | 2.0 | 3.0 | 0.00 | 0.10 | 0.01 | 86 | 1008.0 |
| 20260904220317 | 69 | 225 | 0.0 | 0.0 | 0.00 | 0.11 | 0.01 | 84 | 1007.8 |
| 20260904215416 | 69 | 199 | 3.0 | 4.0 | 0.00 | 0.12 | 0.01 | 85 | 1007.9 |
| 20260904214416 | 70 | 222 | 3.0 | 4.0 | 0.00 | 0.13 | 0.01 | 84 | 1007.9 |
| 20260904212417 | 70 | 239 | 3.0 | 4.0 | 0.00 | 0.14 | 0.01 | 85 | 1008.0 |
| 20260904211515 | 71 | 225 | 2.0 | 3.0 | 0.00 | 0.15 | 0.01 | 82 | 1008.0 |
| 20260904210516 | 72 | 254 | 0.0 | 1.0 | 0.00 | 0.15 | 0.01 | 79 | 1008.1 |
| 20260904205614 | 72 | 22 | 0.0 | 0.0 | 0.00 | 0.15 | 0.01 | 77 | 1008.1 |
| 20260904205514 | 72 | 22 | 0.0 | 0.0 | 0.00 | 0.15 | 0.01 | 76 | 1008.1 |
| 20260904204517 | 73 | 90 | 0.0 | 0.0 | 0.00 | 0.16 | 0.01 | 74 | 1008.1 |
| 20260904203614 | 73 | 90 | 2.0 | 2.0 | 0.00 | 0.17 | 0.01 | 72 | 1008.0 |
| 20260904201616 | 76 | 10 | 4.0 | 5.0 | 0.00 | 0.18 | 0.01 | 68 | 1007.9 |
| 20260904195614 | 73 | 315 | 3.0 | 4.0 | 0.00 | 0.19 | 0.01 | 73 | 1008.0 |
| 20260904194615 | 73 | 62 | 2.0 | 3.0 | 0.00 | 0.19 | 0.01 | 72 | 1008.0 |
| 20260904194514 | 73 | 76 | 3.0 | 4.0 | 0.00 | 0.19 | 0.01 | 72 | 1007.9 |
| 20260904192615 | 73 | 3 | 2.0 | 5.0 | 0.00 | 0.21 | 0.01 | 72 | 1008.1 |
| 20260904192514 | 73 | 335 | 3.0 | 8.0 | 0.00 | 0.21 | 0.01 | 72 | 1007.9 |
| 20260904191614 | 73 | 36 | 3.0 | 6.0 | 0.00 | 0.21 | 0.01 | 72 | 1008.0 |
| 20260904190618 | 73 | 334 | 5.0 | 8.0 | 0.00 | 0.22 | 0.01 | 73 | 1008.2 |
| 20260904185714 | 72 | 329 | 5.0 | 7.0 | 0.00 | 0.23 | 0.01 | 74 | 1008.2 |
| 20260904184814 | 72 | 334 | 4.0 | 7.0 | 0.00 | 0.24 | 0.01 | 74 | 1008.4 |
| 20260904184715 | 72 | 326 | 4.0 | 5.0 | 0.00 | 0.24 | 0.01 | 73 | 1008.4 |
| 20260904183814 | 72 | 360 | 5.0 | 7.0 | 0.00 | 0.25 | 0.01 | 76 | 1008.4 |
| 20260904183713 | 71 | 354 | 3.0 | 6.0 | 0.00 | 0.25 | 0.01 | 76 | 1008.4 |
| 20260904182715 | 70 | 345 | 4.0 | 7.0 | 0.00 | 0.26 | 0.01 | 77 | 1008.5 |
| 20260904180714 | 69 | 316 | 5.0 | 9.0 | 0.00 | 0.26 | 0.01 | 80 | 1008.7 |
| 20260904174715 | 68 | 354 | 4.0 | 8.0 | 0.00 | 0.26 | 0.01 | 82 | 1008.8 |
| 20260904173813 | 68 | 320 | 5.0 | 9.0 | 0.00 | 0.27 | 0.01 | 84 | 1008.9 |
| 20260904172817 | 67 | 335 | 7.0 | 10.0 | 0.00 | 0.27 | 0.01 | 85 | 1009.0 |
| 20260904171715 | 66 | 300 | 4.0 | 7.0 | 0.00 | 0.27 | 0.01 | 88 | 1009.1 |
| 20260904170815 | 65 | 311 | 7.0 | 11.0 | 0.00 | 0.27 | 0.01 | 88 | 1009.3 |
| 20260904170717 | 65 | 302 | 10.0 | 13.0 | 0.00 | 0.27 | 0.01 | 87 | 1009.2 |
| 20260904164716 | 65 | 309 | 5.0 | 7.0 | 0.00 | 0.27 | 0.01 | 88 | 1009.3 |
| 20260904163715 | 65 | 304 | 1.0 | 5.0 | 0.00 | 0.27 | 0.01 | 90 | 1009.3 |
| 20260904162717 | 64 | 343 | 4.0 | 6.0 | 0.00 | 0.28 | 0.01 | 90 | 1009.4 |
| 20260904161715 | 64 | 327 | 7.0 | 10.0 | 0.00 | 0.28 | 0.01 | 90 | 1009.3 |
| 20260904160716 | 64 | 286 | 10.0 | 13.0 | 0.00 | 0.28 | 0.01 | 91 | 1009.5 |
| 20260904155715 | 64 | 297 | 8.0 | 11.0 | 0.00 | 0.30 | 0.01 | 92 | 1009.5 |
| 20260904154716 | 64 | 321 | 6.0 | 8.0 | 0.00 | 0.31 | 0.01 | 92 | 1009.7 |
| 20260904154615 | 63 | 315 | 7.0 | 9.0 | 0.00 | 0.31 | 0.01 | 92 | 1009.7 |
| 20260904153615 | 63 | 317 | 7.0 | 11.0 | 0.00 | 0.33 | 0.01 | 94 | 1009.9 |
| 20260904152713 | 63 | 311 | 4.0 | 6.0 | 0.00 | 0.33 | 0.01 | 95 | 1010.0 |
| 20260904151717 | 63 | 279 | 10.0 | 14.0 | 0.00 | 0.37 | 0.01 | 96 | 1009.9 |
| 20260904150814 | 62 | 315 | 6.0 | 9.0 | 0.00 | 0.39 | 0.01 | 95 | 1010.0 |
| 20260904150716 | 62 | 315 | 5.0 | 10.0 | 0.00 | 0.39 | 0.01 | 95 | 1009.9 |
| 20260904145815 | 62 | 315 | 5.0 | 8.0 | 0.00 | 0.43 | 0.01 | 97 | 1010.0 |
| 20260904144813 | 62 | 305 | 6.0 | 10.0 | 0.00 | 0.48 | 0.01 | 97 | 1010.0 |
| 20260904142815 | 61 | 288 | 3.0 | 4.0 | 0.00 | 0.55 | 0.01 | 96 | 1010.2 |
| 20260904140817 | 61 | 317 | 5.0 | 7.0 | 0.00 | 0.61 | 0.01 | 96 | 1010.1 |
| 20260904140715 | 61 | 319 | 4.0 | 8.0 | 0.00 | 0.61 | 0.01 | 97 | 1010.2 |
| 20260904135715 | 61 | 329 | 5.0 | 7.0 | 0.00 | 0.71 | 0.01 | 96 | 1010.3 |
| 20260904135614 | 61 | 336 | 4.0 | 6.0 | 0.00 | 0.72 | 0.01 | 97 | 1010.4 |
| 20260904134614 | 61 | 329 | 5.0 | 6.0 | 0.00 | 0.81 | 0.01 | 96 | 1010.5 |